Currituck — AEFR — position and weather

sailwx.info

Track history (hours):
 
Tides and Currents Weather Stations Pressure Air Temp Water Temp Dewpoint Dewpoint Depression Visibility Wind Speed Wind Dir Waves Ship Positions

Currituck

Last reported at 2015-May-24 10:33 UTC. Time now 2015-May-24 21:26 UTC.
Position N 42°05' W 070°39'.

Length 45 m; draft 3 m.

Type: Dredging. MMSI: 369970446.

Date/timePositionNaut miles runAvg speedWind from/ knotsBaromVisibWave heightAir tempDewpointWater temp
2015-May-24 10:33N 42°05' W 070°39'0 0.2
2015-May-24 09:34N 42°05' W 070°39'  
2015-May-20 03:12N 41°45' W 070°35'6 8.8
2015-May-20 02:33N 41°41' W 070°41'9 8.9
2015-May-20 01:30N 41°33' W 070°46'15 2.2
2015-May-19 18:32N 41°24' W 071°04'9 8.9
2015-May-19 17:34N 41°20' W 071°14'9 8.8
2015-May-19 16:33N 41°18' W 071°25'8 8.3
2015-May-19 15:33N 41°18' W 071°36'8 8.0
2015-May-19 14:34N 41°16' W 071°47'7 7.4
2015-May-19 13:33N 41°15' W 071°56'7 7.2
2015-May-19 12:33N 41°14' W 072°06'8 7.7
2015-May-19 11:33N 41°14' W 072°16'8 7.6
2015-May-19 10:34N 41°15' W 072°26'4 4.2
2015-May-19 09:34N 41°14' W 072°32'3 2.5
2015-May-19 08:34N 41°16' W 072°29'1 0.7
2015-May-19 07:34N 41°16' W 072°28'4 4.0
2015-May-19 06:34N 41°15' W 072°33'3 3.4
2015-May-19 05:34N 41°16' W 072°29'1 0.6
2015-May-19 04:33N 41°16' W 072°28'0 0.1
2015-May-19 03:33N 41°16' W 072°28'4 3.8
2015-May-19 02:33N 41°15' W 072°33'4 3.8
2015-May-19 01:34N 41°16' W 072°28'0 0.0
2015-May-19 00:34N 41°16' W 072°28'0 0.3
2015-May-18 23:34N 41°16' W 072°29'3 3.1
2015-May-18 22:34N 41°14' W 072°32'3 3.4
2015-May-18 21:34N 41°16' W 072°28'0 0.1
2015-May-18 20:34N 41°16' W 072°28'4 4.1
2015-May-18 19:33N 41°15' W 072°34'4 3.9
2015-May-18 18:33N 41°16' W 072°29'0 0.3
2015-May-18 17:33N 41°16' W 072°28'0 0.2
2015-May-18 16:33N 41°16' W 072°28'0 0.0
2015-May-18 15:34N 41°16' W 072°28'0 0.3
2015-May-18 14:34N 41°16' W 072°28'4 4.1
2015-May-18 13:34N 41°15' W 072°33'4 4.0
2015-May-18 12:33N 41°16' W 072°28'0 0.0
2015-May-18 11:34N 41°16' W 072°28'0 0.2
2015-May-18 10:34N 41°16' W 072°28'3 3.3
2015-May-18 09:34N 41°14' W 072°32'2 2.2
2015-May-18 08:33N 41°15' W 072°29'1 1.1
2015-May-18 07:34N 41°16' W 072°28'4 4.3
2015-May-18 06:34N 41°15' W 072°34'4 4.2
2015-May-18 05:34N 41°16' W 072°28'0 0.1
2015-May-18 04:34N 41°16' W 072°28'3 3.2
2015-May-18 03:33N 41°14' W 072°32'3 2.8
2015-May-18 02:34N 41°16' W 072°29'1 0.6
2015-May-18 01:34N 41°16' W 072°28'3 3.3
2015-May-18 00:33N 41°14' W 072°32'3 3.0
2015-May-17 23:34N 41°16' W 072°28'0 0.1
2015-May-17 22:33N 41°16' W 072°28'3 2.6
2015-May-17 21:34N 41°14' W 072°31'2 2.1
2015-May-17 20:33N 41°16' W 072°29'0 0.4
2015-May-17 19:33N 41°16' W 072°28'3 3.1
2015-May-17 18:33N 41°14' W 072°32'3 3.4
2015-May-17 17:33N 41°16' W 072°28'0 0.0
2015-May-17 16:34N 41°16' W 072°28'4 3.6
2015-May-17 15:33N 41°14' W 072°32'4 3.7
2015-May-17 14:34N 41°16' W 072°28'0 0.0
2015-May-17 13:33N 41°16' W 072°28'3 3.3
2015-May-17 12:33N 41°14' W 072°32'2 2.2
2015-May-17 11:34N 41°15' W 072°29'1 1.2
2015-May-17 10:34N 41°16' W 072°28'3 3.3
2015-May-17 09:33N 41°14' W 072°32'3 2.5
2015-May-17 08:33N 41°16' W 072°29'1 0.7
2015-May-17 07:34N 41°16' W 072°28'4 3.7
2015-May-17 06:34N 41°14' W 072°33'3 3.0
2015-May-17 05:34N 41°16' W 072°29'1 0.7
2015-May-17 04:34N 41°16' W 072°28'3 3.0
2015-May-17 03:33N 41°14' W 072°31'2 2.0
2015-May-17 02:34N 41°15' W 072°29'1 1.1
2015-May-17 01:34N 41°16' W 072°28'3 3.4
2015-May-17 00:34N 41°14' W 072°32'3 2.7
2015-May-16 23:33N 41°16' W 072°29'1 0.8
2015-May-16 22:34N 41°16' W 072°28'3 3.5
2015-May-16 21:34N 41°14' W 072°32'3 3.3
2015-May-16 20:33N 41°16' W 072°28'0 0.2
2015-May-16 19:33N 41°16' W 072°28'0 0.1
2015-May-16 18:33N 41°16' W 072°28'3 3.3
2015-May-16 17:33N 41°14' W 072°32'3 3.4
2015-May-16 16:33N 41°16' W 072°28'3 3.3
2015-May-16 15:33N 41°14' W 072°32'2 2.1
2015-May-16 14:33N 41°15' W 072°29'1 1.2
2015-May-16 13:33N 41°16' W 072°28'2 1.8
2015-May-16 12:33N 41°15' W 072°30'0 0.4
2015-May-16 11:34N 41°15' W 072°30'2 2.2
2015-May-16 10:33N 41°16' W 072°28'2 2.2
2015-May-16 09:33N 41°15' W 072°30'0 0.4
2015-May-16 08:33N 41°15' W 072°30'2 1.8
2015-May-16 07:33N 41°16' W 072°28'4 4.2
2015-May-16 06:34N 41°15' W 072°33'4 4.1
2015-May-16 05:33N 41°16' W 072°28'0 0.1
2015-May-16 04:33N 41°16' W 072°28'4 4.3
2015-May-16 03:33N 41°15' W 072°34'4 4.2
2015-May-16 02:33N 41°16' W 072°28'0 0.0
2015-May-16 01:33N 41°16' W 072°28'3 3.4
2015-May-16 00:33N 41°14' W 072°32'3 3.4
2015-May-15 23:33N 41°16' W 072°28'0 0.0
2015-May-15 22:33N 41°16' W 072°28'1 1.4
2015-May-15 21:33N 41°15' W 072°30'1 0.8
2015-May-15 20:33N 41°14' W 072°30'2 2.4
2015-May-15 19:33N 41°16' W 072°28'0 0.2
2015-May-15 18:34N 41°16' W 072°28'3 3.4
2015-May-15 17:33N 41°14' W 072°32'4 3.6
2015-May-15 16:33N 41°16' W 072°28'0 0.1
2015-May-15 15:33N 41°16' W 072°28'0 0.0
2015-May-15 14:33N 41°16' W 072°28'0 0.0
2015-May-15 13:34N 41°16' W 072°28'4 4.4
2015-May-15 12:34N 41°16' W 072°34'4 4.3
2015-May-15 11:34N 41°16' W 072°28'0 0.0
2015-May-15 10:34N 41°16' W 072°28'3 2.6
2015-May-15 09:34N 41°14' W 072°31'1 1.2
2015-May-15 08:34N 41°15' W 072°30'1 1.3
2015-May-15 07:34N 41°16' W 072°28'0 0.3
2015-May-15 06:34N 41°16' W 072°29'3 3.0
2015-May-15 05:33N 41°14' W 072°32'3 3.3
2015-May-15 04:34N 41°16' W 072°28'0 0.2
2015-May-15 03:34N 41°16' W 072°28'0 0.0
2015-May-15 02:34N 41°16' W 072°28'0 0.0
2015-May-15 01:34N 41°16' W 072°28'0 0.0
2015-May-15 00:34N 41°16' W 072°28'0 0.0
2015-May-14 23:34N 41°16' W 072°28'0 0.0
2015-May-14 22:34N 41°16' W 072°28'0 0.0
2015-May-14 21:34N 41°16' W 072°28'5 4.9
2015-May-14 20:33N 41°14' W 072°34'8 8.2
2015-May-14 19:33N 41°11' W 072°44'9 9.1
2015-May-14 18:33N 41°09' W 072°56'9 9.4
2015-May-14 17:33N 41°06' W 073°08'9 9.4
2015-May-14 16:33N 41°03' W 073°20'10 9.6
2015-May-14 15:33N 40°59' W 073°31'25 7.3
2015-May-14 12:11N 40°45' W 073°58'2 2.8
2015-May-14 11:33N 40°43' W 073°58'5 5.1
2015-May-14 10:34N 40°41' W 074°04'  
Track history (hours):
 
Tides and Currents Weather Stations Pressure Air Temp Water Temp Dewpoint Dewpoint Depression Visibility Wind Speed Wind Dir Waves Ship Positions

Currituck

Last reported at 2015-May-24 10:33 UTC. Time now 2015-May-24 21:26 UTC.
Position N 42°05' W 070°39'.

Length 45 m; draft 3 m.

Type: Dredging. MMSI: 369970446.

Date/timePositionNaut miles runAvg speedWind from/ knotsBaromVisibWave heightAir tempDewpointWater temp
2015-May-24 10:33N 42°05' W 070°39'0 0.2
2015-May-24 09:34N 42°05' W 070°39'  
2015-May-20 03:12N 41°45' W 070°35'6 8.8
2015-May-20 02:33N 41°41' W 070°41'9 8.9
2015-May-20 01:30N 41°33' W 070°46'15 2.2
2015-May-19 18:32N 41°24' W 071°04'9 8.9
2015-May-19 17:34N 41°20' W 071°14'9 8.8
2015-May-19 16:33N 41°18' W 071°25'8 8.3
2015-May-19 15:33N 41°18' W 071°36'8 8.0
2015-May-19 14:34N 41°16' W 071°47'7 7.4
2015-May-19 13:33N 41°15' W 071°56'7 7.2
2015-May-19 12:33N 41°14' W 072°06'8 7.7
2015-May-19 11:33N 41°14' W 072°16'8 7.6
2015-May-19 10:34N 41°15' W 072°26'4 4.2
2015-May-19 09:34N 41°14' W 072°32'3 2.5
2015-May-19 08:34N 41°16' W 072°29'1 0.7
2015-May-19 07:34N 41°16' W 072°28'4 4.0
2015-May-19 06:34N 41°15' W 072°33'3 3.4
2015-May-19 05:34N 41°16' W 072°29'1 0.6
2015-May-19 04:33N 41°16' W 072°28'0 0.1
2015-May-19 03:33N 41°16' W 072°28'4 3.8
2015-May-19 02:33N 41°15' W 072°33'4 3.8
2015-May-19 01:34N 41°16' W 072°28'0 0.0
2015-May-19 00:34N 41°16' W 072°28'0 0.3
2015-May-18 23:34N 41°16' W 072°29'3 3.1
2015-May-18 22:34N 41°14' W 072°32'3 3.4
2015-May-18 21:34N 41°16' W 072°28'0 0.1
2015-May-18 20:34N 41°16' W 072°28'4 4.1
2015-May-18 19:33N 41°15' W 072°34'4 3.9
2015-May-18 18:33N 41°16' W 072°29'0 0.3
2015-May-18 17:33N 41°16' W 072°28'0 0.2
2015-May-18 16:33N 41°16' W 072°28'0 0.0
2015-May-18 15:34N 41°16' W 072°28'0 0.3
2015-May-18 14:34N 41°16' W 072°28'4 4.1
2015-May-18 13:34N 41°15' W 072°33'4 4.0
2015-May-18 12:33N 41°16' W 072°28'0 0.0
2015-May-18 11:34N 41°16' W 072°28'0 0.2
2015-May-18 10:34N 41°16' W 072°28'3 3.3
2015-May-18 09:34N 41°14' W 072°32'2 2.2
2015-May-18 08:33N 41°15' W 072°29'1 1.1
2015-May-18 07:34N 41°16' W 072°28'4 4.3
2015-May-18 06:34N 41°15' W 072°34'4 4.2
2015-May-18 05:34N 41°16' W 072°28'0 0.1
2015-May-18 04:34N 41°16' W 072°28'3 3.2
2015-May-18 03:33N 41°14' W 072°32'3 2.8
2015-May-18 02:34N 41°16' W 072°29'1 0.6
2015-May-18 01:34N 41°16' W 072°28'3 3.3
2015-May-18 00:33N 41°14' W 072°32'3 3.0
2015-May-17 23:34N 41°16' W 072°28'0 0.1
2015-May-17 22:33N 41°16' W 072°28'3 2.6
2015-May-17 21:34N 41°14' W 072°31'2 2.1
2015-May-17 20:33N 41°16' W 072°29'0 0.4
2015-May-17 19:33N 41°16' W 072°28'3 3.1
2015-May-17 18:33N 41°14' W 072°32'3 3.4
2015-May-17 17:33N 41°16' W 072°28'0 0.0
2015-May-17 16:34N 41°16' W 072°28'4 3.6
2015-May-17 15:33N 41°14' W 072°32'4 3.7
2015-May-17 14:34N 41°16' W 072°28'0 0.0
2015-May-17 13:33N 41°16' W 072°28'3 3.3
2015-May-17 12:33N 41°14' W 072°32'2 2.2
2015-May-17 11:34N 41°15' W 072°29'1 1.2
2015-May-17 10:34N 41°16' W 072°28'3 3.3
2015-May-17 09:33N 41°14' W 072°32'3 2.5
2015-May-17 08:33N 41°16' W 072°29'1 0.7
2015-May-17 07:34N 41°16' W 072°28'4 3.7
2015-May-17 06:34N 41°14' W 072°33'3 3.0
2015-May-17 05:34N 41°16' W 072°29'1 0.7
2015-May-17 04:34N 41°16' W 072°28'3 3.0
2015-May-17 03:33N 41°14' W 072°31'2 2.0
2015-May-17 02:34N 41°15' W 072°29'1 1.1
2015-May-17 01:34N 41°16' W 072°28'3 3.4
2015-May-17 00:34N 41°14' W 072°32'3 2.7
2015-May-16 23:33N 41°16' W 072°29'1 0.8
2015-May-16 22:34N 41°16' W 072°28'3 3.5
2015-May-16 21:34N 41°14' W 072°32'3 3.3
2015-May-16 20:33N 41°16' W 072°28'0 0.2
2015-May-16 19:33N 41°16' W 072°28'0 0.1
2015-May-16 18:33N 41°16' W 072°28'3 3.3
2015-May-16 17:33N 41°14' W 072°32'3 3.4
2015-May-16 16:33N 41°16' W 072°28'3 3.3
2015-May-16 15:33N 41°14' W 072°32'2 2.1
2015-May-16 14:33N 41°15' W 072°29'1 1.2
2015-May-16 13:33N 41°16' W 072°28'2 1.8
2015-May-16 12:33N 41°15' W 072°30'0 0.4
2015-May-16 11:34N 41°15' W 072°30'2 2.2
2015-May-16 10:33N 41°16' W 072°28'2 2.2
2015-May-16 09:33N 41°15' W 072°30'0 0.4
2015-May-16 08:33N 41°15' W 072°30'2 1.8
2015-May-16 07:33N 41°16' W 072°28'4 4.2
2015-May-16 06:34N 41°15' W 072°33'4 4.1
2015-May-16 05:33N 41°16' W 072°28'0 0.1
2015-May-16 04:33N 41°16' W 072°28'4 4.3
2015-May-16 03:33N 41°15' W 072°34'4 4.2
2015-May-16 02:33N 41°16' W 072°28'0 0.0
2015-May-16 01:33N 41°16' W 072°28'3 3.4
2015-May-16 00:33N 41°14' W 072°32'3 3.4
2015-May-15 23:33N 41°16' W 072°28'0 0.0
2015-May-15 22:33N 41°16' W 072°28'1 1.4
2015-May-15 21:33N 41°15' W 072°30'1 0.8
2015-May-15 20:33N 41°14' W 072°30'2 2.4
2015-May-15 19:33N 41°16' W 072°28'0 0.2
2015-May-15 18:34N 41°16' W 072°28'3 3.4
2015-May-15 17:33N 41°14' W 072°32'4 3.6
2015-May-15 16:33N 41°16' W 072°28'0 0.1
2015-May-15 15:33N 41°16' W 072°28'0 0.0
2015-May-15 14:33N 41°16' W 072°28'0 0.0
2015-May-15 13:34N 41°16' W 072°28'4 4.4
2015-May-15 12:34N 41°16' W 072°34'4 4.3
2015-May-15 11:34N 41°16' W 072°28'0 0.0
2015-May-15 10:34N 41°16' W 072°28'3 2.6
2015-May-15 09:34N 41°14' W 072°31'1 1.2
2015-May-15 08:34N 41°15' W 072°30'1 1.3
2015-May-15 07:34N 41°16' W 072°28'0 0.3
2015-May-15 06:34N 41°16' W 072°29'3 3.0
2015-May-15 05:33N 41°14' W 072°32'3 3.3
2015-May-15 04:34N 41°16' W 072°28'0 0.2
2015-May-15 03:34N 41°16' W 072°28'0 0.0
2015-May-15 02:34N 41°16' W 072°28'0 0.0
2015-May-15 01:34N 41°16' W 072°28'0 0.0
2015-May-15 00:34N 41°16' W 072°28'0 0.0
2015-May-14 23:34N 41°16' W 072°28'0 0.0
2015-May-14 22:34N 41°16' W 072°28'0 0.0
2015-May-14 21:34N 41°16' W 072°28'5 4.9
2015-May-14 20:33N 41°14' W 072°34'8 8.2
2015-May-14 19:33N 41°11' W 072°44'9 9.1
2015-May-14 18:33N 41°09' W 072°56'9 9.4
2015-May-14 17:33N 41°06' W 073°08'9 9.4
2015-May-14 16:33N 41°03' W 073°20'10 9.6
2015-May-14 15:33N 40°59' W 073°31'25 7.3
2015-May-14 12:11N 40°45' W 073°58'2 2.8
2015-May-14 11:33N 40°43' W 073°58'5 5.1
2015-May-14 10:34N 40°41' W 074°04'  

Dump ship's entire track history